sensor_id;sensor_type;location;lat;lon;timestamp;P1;durP1;ratioP1;P2;durP2;ratioP2
31906;SDS011;18455;50.858;13.662;2023-02-13T00:04:06;7.77;;;4.43;;
31906;SDS011;18455;50.858;13.662;2023-02-13T00:09:06;6.57;;;4.00;;
31906;SDS011;18455;50.858;13.662;2023-02-13T00:14:10;13.50;;;7.73;;
31906;SDS011;18455;50.858;13.662;2023-02-13T00:19:10;10.43;;;5.80;;
31906;SDS011;18455;50.858;13.662;2023-02-13T00:24:10;10.33;;;4.90;;
31906;SDS011;18455;50.858;13.662;2023-02-13T00:29:13;9.70;;;5.50;;
31906;SDS011;18455;50.858;13.662;2023-02-13T00:34:13;14.90;;;8.33;;
31906;SDS011;18455;50.858;13.662;2023-02-13T00:39:14;8.50;;;5.23;;
31906;SDS011;18455;50.858;13.662;2023-02-13T00:44:14;11.53;;;5.60;;
31906;SDS011;18455;50.858;13.662;2023-02-13T00:49:14;9.37;;;4.93;;
31906;SDS011;18455;50.858;13.662;2023-02-13T00:54:15;7.87;;;4.30;;
31906;SDS011;18455;50.858;13.662;2023-02-13T00:59:17;8.20;;;4.60;;
31906;SDS011;18455;50.858;13.662;2023-02-13T01:04:17;8.53;;;4.50;;
31906;SDS011;18455;50.858;13.662;2023-02-13T01:09:18;10.20;;;4.60;;
31906;SDS011;18455;50.858;13.662;2023-02-13T01:14:18;18.00;;;5.63;;
31906;SDS011;18455;50.858;13.662;2023-02-13T01:19:20;16.60;;;7.10;;
31906;SDS011;18455;50.858;13.662;2023-02-13T01:24:21;21.90;;;8.43;;
31906;SDS011;18455;50.858;13.662;2023-02-13T01:29:21;22.17;;;8.40;;
31906;SDS011;18455;50.858;13.662;2023-02-13T01:34:21;15.40;;;6.37;;
31906;SDS011;18455;50.858;13.662;2023-02-13T01:39:22;16.60;;;7.27;;
31906;SDS011;18455;50.858;13.662;2023-02-13T01:49:49;20.33;;;6.93;;
31906;SDS011;18455;50.858;13.662;2023-02-13T01:54:55;19.93;;;7.83;;
31906;SDS011;18455;50.858;13.662;2023-02-13T01:59:56;17.47;;;7.13;;
31906;SDS011;18455;50.858;13.662;2023-02-13T02:05:01;16.47;;;6.57;;
31906;SDS011;18455;50.858;13.662;2023-02-13T02:10:04;28.60;;;9.33;;
31906;SDS011;18455;50.858;13.662;2023-02-13T02:15:07;30.27;;;10.03;;
31906;SDS011;18455;50.858;13.662;2023-02-13T02:25:28;29.60;;;8.80;;
31906;SDS011;18455;50.858;13.662;2023-02-13T02:41:40;48.23;;;11.40;;
31906;SDS011;18455;50.858;13.662;2023-02-13T02:47:07;46.90;;;13.53;;
31906;SDS011;18455;50.858;13.662;2023-02-13T02:52:28;36.30;;;10.60;;
31906;SDS011;18455;50.858;13.662;2023-02-13T02:57:39;41.20;;;10.67;;
31906;SDS011;18455;50.858;13.662;2023-02-13T03:03:02;37.83;;;10.83;;
31906;SDS011;18455;50.858;13.662;2023-02-13T03:08:23;40.20;;;10.63;;
31906;SDS011;18455;50.858;13.662;2023-02-13T03:13:44;43.10;;;11.40;;
31906;SDS011;18455;50.858;13.662;2023-02-13T03:18:49;41.27;;;12.37;;
31906;SDS011;18455;50.858;13.662;2023-02-13T03:24:16;38.83;;;11.50;;
31906;SDS011;18455;50.858;13.662;2023-02-13T03:34:53;51.77;;;13.83;;
31906;SDS011;18455;50.858;13.662;2023-02-13T03:40:22;48.30;;;13.40;;
31906;SDS011;18455;50.858;13.662;2023-02-13T03:45:24;44.67;;;12.93;;
31906;SDS011;18455;50.858;13.662;2023-02-13T03:50:46;38.07;;;12.07;;
31906;SDS011;18455;50.858;13.662;2023-02-13T03:55:47;47.67;;;13.00;;
31906;SDS011;18455;50.858;13.662;2023-02-13T04:01:07;29.63;;;11.50;;
31906;SDS011;18455;50.858;13.662;2023-02-13T04:06:10;29.83;;;10.83;;
31906;SDS011;18455;50.858;13.662;2023-02-13T04:11:13;26.17;;;10.43;;
31906;SDS011;18455;50.858;13.662;2023-02-13T04:16:17;23.23;;;9.10;;
31906;SDS011;18455;50.858;13.662;2023-02-13T04:21:20;24.30;;;9.70;;
31906;SDS011;18455;50.858;13.662;2023-02-13T04:26:21;28.90;;;9.03;;
31906;SDS011;18455;50.858;13.662;2023-02-13T04:31:22;26.87;;;10.07;;
31906;SDS011;18455;50.858;13.662;2023-02-13T04:36:22;29.13;;;11.67;;
31906;SDS011;18455;50.858;13.662;2023-02-13T04:41:23;33.73;;;11.47;;
31906;SDS011;18455;50.858;13.662;2023-02-13T04:46:23;37.47;;;12.30;;
31906;SDS011;18455;50.858;13.662;2023-02-13T04:51:23;27.30;;;11.40;;
31906;SDS011;18455;50.858;13.662;2023-02-13T04:56:24;28.63;;;11.90;;
31906;SDS011;18455;50.858;13.662;2023-02-13T05:01:24;28.07;;;11.07;;
31906;SDS011;18455;50.858;13.662;2023-02-13T05:06:24;27.17;;;11.03;;
31906;SDS011;18455;50.858;13.662;2023-02-13T05:11:25;31.50;;;12.30;;
31906;SDS011;18455;50.858;13.662;2023-02-13T05:16:25;28.37;;;13.30;;
31906;SDS011;18455;50.858;13.662;2023-02-13T05:21:25;34.10;;;13.60;;
31906;SDS011;18455;50.858;13.662;2023-02-13T05:26:44;30.33;;;13.63;;
31906;SDS011;18455;50.858;13.662;2023-02-13T05:31:54;22.90;;;11.00;;
31906;SDS011;18455;50.858;13.662;2023-02-13T05:36:56;25.40;;;11.40;;
31906;SDS011;18455;50.858;13.662;2023-02-13T05:41:56;21.00;;;10.73;;
31906;SDS011;18455;50.858;13.662;2023-02-13T05:46:57;30.47;;;12.63;;
31906;SDS011;18455;50.858;13.662;2023-02-13T05:51:57;26.57;;;11.20;;
31906;SDS011;18455;50.858;13.662;2023-02-13T05:56:57;27.53;;;11.23;;
31906;SDS011;18455;50.858;13.662;2023-02-13T06:01:58;25.33;;;11.50;;
31906;SDS011;18455;50.858;13.662;2023-02-13T06:06:58;24.93;;;11.37;;
31906;SDS011;18455;50.858;13.662;2023-02-13T06:11:58;31.40;;;12.43;;
31906;SDS011;18455;50.858;13.662;2023-02-13T06:16:59;30.87;;;13.27;;
31906;SDS011;18455;50.858;13.662;2023-02-13T06:22:00;29.20;;;13.37;;
31906;SDS011;18455;50.858;13.662;2023-02-13T06:27:00;28.07;;;12.33;;
31906;SDS011;18455;50.858;13.662;2023-02-13T06:32:00;27.83;;;12.63;;
31906;SDS011;18455;50.858;13.662;2023-02-13T06:37:01;28.87;;;12.27;;
31906;SDS011;18455;50.858;13.662;2023-02-13T06:42:01;26.73;;;12.43;;
31906;SDS011;18455;50.858;13.662;2023-02-13T06:47:02;30.93;;;16.67;;
31906;SDS011;18455;50.858;13.662;2023-02-13T06:52:02;28.30;;;13.27;;
31906;SDS011;18455;50.858;13.662;2023-02-13T06:57:03;27.40;;;11.00;;
31906;SDS011;18455;50.858;13.662;2023-02-13T07:02:03;27.77;;;11.67;;
31906;SDS011;18455;50.858;13.662;2023-02-13T07:07:03;25.47;;;11.87;;
31906;SDS011;18455;50.858;13.662;2023-02-13T07:12:04;23.40;;;11.20;;
31906;SDS011;18455;50.858;13.662;2023-02-13T07:17:04;24.00;;;12.13;;
31906;SDS011;18455;50.858;13.662;2023-02-13T07:22:05;21.53;;;11.17;;
31906;SDS011;18455;50.858;13.662;2023-02-13T07:27:06;22.77;;;11.27;;
31906;SDS011;18455;50.858;13.662;2023-02-13T07:32:06;23.90;;;12.00;;
31906;SDS011;18455;50.858;13.662;2023-02-13T07:37:08;29.67;;;11.70;;
31906;SDS011;18455;50.858;13.662;2023-02-13T07:42:08;29.40;;;12.90;;
31906;SDS011;18455;50.858;13.662;2023-02-13T07:47:10;29.33;;;11.83;;
31906;SDS011;18455;50.858;13.662;2023-02-13T07:52:10;27.97;;;13.43;;
31906;SDS011;18455;50.858;13.662;2023-02-13T07:57:11;50.30;;;13.87;;
31906;SDS011;18455;50.858;13.662;2023-02-13T08:02:12;56.37;;;16.93;;
31906;SDS011;18455;50.858;13.662;2023-02-13T08:07:13;47.10;;;15.30;;
31906;SDS011;18455;50.858;13.662;2023-02-13T08:12:14;39.17;;;14.97;;
31906;SDS011;18455;50.858;13.662;2023-02-13T08:17:14;59.93;;;18.00;;
31906;SDS011;18455;50.858;13.662;2023-02-13T08:22:15;60.97;;;19.97;;
31906;SDS011;18455;50.858;13.662;2023-02-13T08:27:15;51.47;;;18.43;;
31906;SDS011;18455;50.858;13.662;2023-02-13T08:32:16;50.13;;;18.33;;
31906;SDS011;18455;50.858;13.662;2023-02-13T08:37:17;52.13;;;19.53;;
31906;SDS011;18455;50.858;13.662;2023-02-13T08:42:17;48.73;;;19.03;;
31906;SDS011;18455;50.858;13.662;2023-02-13T08:47:17;46.50;;;19.37;;
31906;SDS011;18455;50.858;13.662;2023-02-13T08:52:18;49.67;;;20.37;;
31906;SDS011;18455;50.858;13.662;2023-02-13T08:57:18;49.13;;;19.57;;
31906;SDS011;18455;50.858;13.662;2023-02-13T09:02:19;45.37;;;18.90;;
31906;SDS011;18455;50.858;13.662;2023-02-13T09:07:19;53.90;;;21.33;;
31906;SDS011;18455;50.858;13.662;2023-02-13T09:12:19;46.93;;;19.77;;
31906;SDS011;18455;50.858;13.662;2023-02-13T09:17:20;52.80;;;21.27;;
31906;SDS011;18455;50.858;13.662;2023-02-13T09:22:20;47.07;;;21.67;;
31906;SDS011;18455;50.858;13.662;2023-02-13T09:27:20;47.73;;;19.53;;
31906;SDS011;18455;50.858;13.662;2023-02-13T09:32:21;46.17;;;20.23;;
31906;SDS011;18455;50.858;13.662;2023-02-13T09:37:21;44.17;;;20.20;;
31906;SDS011;18455;50.858;13.662;2023-02-13T09:42:26;41.83;;;18.53;;
31906;SDS011;18455;50.858;13.662;2023-02-13T09:47:40;43.60;;;19.97;;
31906;SDS011;18455;50.858;13.662;2023-02-13T09:52:42;40.70;;;19.60;;
31906;SDS011;18455;50.858;13.662;2023-02-13T09:57:46;49.67;;;21.27;;
31906;SDS011;18455;50.858;13.662;2023-02-13T10:08:02;41.67;;;18.57;;
31906;SDS011;18455;50.858;13.662;2023-02-13T10:18:53;34.77;;;16.97;;
31906;SDS011;18455;50.858;13.662;2023-02-13T10:23:58;44.47;;;18.80;;
31906;SDS011;18455;50.858;13.662;2023-02-13T10:29:04;34.33;;;17.63;;
31906;SDS011;18455;50.858;13.662;2023-02-13T10:34:24;33.63;;;17.03;;
31906;SDS011;18455;50.858;13.662;2023-02-13T10:39:27;33.67;;;16.10;;
31906;SDS011;18455;50.858;13.662;2023-02-13T10:44:35;34.43;;;16.20;;
31906;SDS011;18455;50.858;13.662;2023-02-13T11:01:09;30.30;;;14.80;;
31906;SDS011;18455;50.858;13.662;2023-02-13T11:06:30;34.63;;;15.30;;
31906;SDS011;18455;50.858;13.662;2023-02-13T11:11:33;24.23;;;13.50;;
31906;SDS011;18455;50.858;13.662;2023-02-13T11:16:53;28.50;;;13.80;;
31906;SDS011;18455;50.858;13.662;2023-02-13T11:21:57;26.67;;;15.67;;
31906;SDS011;18455;50.858;13.662;2023-02-13T11:27:04;28.50;;;16.00;;
31906;SDS011;18455;50.858;13.662;2023-02-13T11:37:18;28.50;;;16.10;;
31906;SDS011;18455;50.858;13.662;2023-02-13T11:42:23;37.17;;;20.60;;
31906;SDS011;18455;50.858;13.662;2023-02-13T11:47:31;21.00;;;13.80;;
31906;SDS011;18455;50.858;13.662;2023-02-13T11:52:39;21.07;;;13.73;;
31906;SDS011;18455;50.858;13.662;2023-02-13T11:57:40;19.27;;;12.93;;
31906;SDS011;18455;50.858;13.662;2023-02-13T12:02:44;16.47;;;11.83;;
31906;SDS011;18455;50.858;13.662;2023-02-13T12:07:47;18.90;;;13.13;;
31906;SDS011;18455;50.858;13.662;2023-02-13T12:17:58;32.67;;;21.43;;
31906;SDS011;18455;50.858;13.662;2023-02-13T12:29:03;15.23;;;10.97;;
31906;SDS011;18455;50.858;13.662;2023-02-13T12:39:32;14.10;;;10.60;;
31906;SDS011;18455;50.858;13.662;2023-02-13T12:44:42;11.97;;;9.10;;
31906;SDS011;18455;50.858;13.662;2023-02-13T12:55:46;15.47;;;12.23;;
31906;SDS011;18455;50.858;13.662;2023-02-13T13:01:03;18.60;;;12.57;;
31906;SDS011;18455;50.858;13.662;2023-02-13T13:06:16;17.37;;;12.37;;
31906;SDS011;18455;50.858;13.662;2023-02-13T13:16:57;20.07;;;14.60;;
31906;SDS011;18455;50.858;13.662;2023-02-13T13:22:40;22.00;;;15.10;;
31906;SDS011;18455;50.858;13.662;2023-02-13T13:27:46;20.53;;;14.90;;
31906;SDS011;18455;50.858;13.662;2023-02-13T13:32:51;19.13;;;12.97;;
31906;SDS011;18455;50.858;13.662;2023-02-13T13:37:59;20.53;;;12.73;;
31906;SDS011;18455;50.858;13.662;2023-02-13T13:43:11;20.10;;;13.20;;
31906;SDS011;18455;50.858;13.662;2023-02-13T13:59:00;19.43;;;14.23;;
31906;SDS011;18455;50.858;13.662;2023-02-13T14:09:42;20.27;;;13.57;;
31906;SDS011;18455;50.858;13.662;2023-02-13T14:14:43;12.13;;;9.53;;
31906;SDS011;18455;50.858;13.662;2023-02-13T14:19:45;34.33;;;20.37;;
31906;SDS011;18455;50.858;13.662;2023-02-13T14:24:50;16.83;;;12.70;;
31906;SDS011;18455;50.858;13.662;2023-02-13T14:29:51;40.27;;;22.50;;
31906;SDS011;18455;50.858;13.662;2023-02-13T14:34:53;29.23;;;20.97;;
31906;SDS011;18455;50.858;13.662;2023-02-13T14:40:41;12.57;;;11.03;;
31906;SDS011;18455;50.858;13.662;2023-02-13T14:45:19;12.23;;;10.80;;
31906;SDS011;18455;50.858;13.662;2023-02-13T14:50:25;11.87;;;8.93;;
31906;SDS011;18455;50.858;13.662;2023-02-13T14:55:33;14.20;;;9.53;;
31906;SDS011;18455;50.858;13.662;2023-02-13T15:00:54;16.03;;;11.73;;
31906;SDS011;18455;50.858;13.662;2023-02-13T15:05:58;16.17;;;11.93;;
31906;SDS011;18455;50.858;13.662;2023-02-13T15:11:02;15.83;;;11.93;;
31906;SDS011;18455;50.858;13.662;2023-02-13T15:16:07;15.10;;;11.27;;
31906;SDS011;18455;50.858;13.662;2023-02-13T15:21:13;11.93;;;9.20;;
31906;SDS011;18455;50.858;13.662;2023-02-13T15:26:18;17.47;;;12.10;;
31906;SDS011;18455;50.858;13.662;2023-02-13T15:31:22;24.50;;;17.03;;
31906;SDS011;18455;50.858;13.662;2023-02-13T15:36:24;26.90;;;17.67;;
31906;SDS011;18455;50.858;13.662;2023-02-13T15:41:26;22.23;;;15.53;;
31906;SDS011;18455;50.858;13.662;2023-02-13T15:46:32;26.90;;;18.13;;
31906;SDS011;18455;50.858;13.662;2023-02-13T15:51:33;29.87;;;20.77;;
31906;SDS011;18455;50.858;13.662;2023-02-13T15:56:34;29.43;;;20.40;;
31906;SDS011;18455;50.858;13.662;2023-02-13T16:01:35;33.27;;;21.20;;
31906;SDS011;18455;50.858;13.662;2023-02-13T16:06:39;34.80;;;21.50;;
31906;SDS011;18455;50.858;13.662;2023-02-13T16:11:42;34.17;;;20.80;;
31906;SDS011;18455;50.858;13.662;2023-02-13T16:27:27;37.33;;;20.83;;
31906;SDS011;18455;50.858;13.662;2023-02-13T16:32:29;36.00;;;20.83;;
31906;SDS011;18455;50.858;13.662;2023-02-13T16:37:31;37.30;;;20.43;;
31906;SDS011;18455;50.858;13.662;2023-02-13T16:42:32;38.70;;;21.17;;
31906;SDS011;18455;50.858;13.662;2023-02-13T16:47:32;42.23;;;22.67;;
31906;SDS011;18455;50.858;13.662;2023-02-13T16:52:33;42.30;;;23.20;;
31906;SDS011;18455;50.858;13.662;2023-02-13T16:57:34;45.07;;;21.77;;
31906;SDS011;18455;50.858;13.662;2023-02-13T17:02:35;50.90;;;24.77;;
31906;SDS011;18455;50.858;13.662;2023-02-13T17:07:38;53.57;;;26.97;;
31906;SDS011;18455;50.858;13.662;2023-02-13T17:12:52;71.20;;;26.37;;
31906;SDS011;18455;50.858;13.662;2023-02-13T17:17:54;64.20;;;30.20;;
31906;SDS011;18455;50.858;13.662;2023-02-13T17:22:56;65.63;;;29.47;;
31906;SDS011;18455;50.858;13.662;2023-02-13T17:27:58;79.63;;;34.97;;
31906;SDS011;18455;50.858;13.662;2023-02-13T17:33:04;76.40;;;35.37;;
31906;SDS011;18455;50.858;13.662;2023-02-13T17:38:06;73.10;;;33.20;;
31906;SDS011;18455;50.858;13.662;2023-02-13T17:43:12;73.17;;;29.00;;
31906;SDS011;18455;50.858;13.662;2023-02-13T17:48:13;65.73;;;28.70;;
31906;SDS011;18455;50.858;13.662;2023-02-13T17:53:20;84.83;;;34.73;;
31906;SDS011;18455;50.858;13.662;2023-02-13T17:58:22;99.27;;;28.30;;
31906;SDS011;18455;50.858;13.662;2023-02-13T18:03:23;66.43;;;26.33;;
31906;SDS011;18455;50.858;13.662;2023-02-13T18:08:23;56.37;;;24.50;;
31906;SDS011;18455;50.858;13.662;2023-02-13T18:13:23;64.27;;;27.17;;
31906;SDS011;18455;50.858;13.662;2023-02-13T18:18:24;53.63;;;24.90;;
31906;SDS011;18455;50.858;13.662;2023-02-13T18:23:24;52.33;;;24.20;;
31906;SDS011;18455;50.858;13.662;2023-02-13T18:28:24;57.93;;;24.37;;
31906;SDS011;18455;50.858;13.662;2023-02-13T18:33:27;50.17;;;24.30;;
31906;SDS011;18455;50.858;13.662;2023-02-13T18:38:27;54.23;;;24.70;;
31906;SDS011;18455;50.858;13.662;2023-02-13T18:43:28;50.40;;;21.63;;
31906;SDS011;18455;50.858;13.662;2023-02-13T18:48:28;65.10;;;24.67;;
31906;SDS011;18455;50.858;13.662;2023-02-13T18:53:30;58.70;;;23.40;;
31906;SDS011;18455;50.858;13.662;2023-02-13T18:58:31;50.23;;;22.73;;
31906;SDS011;18455;50.858;13.662;2023-02-13T19:03:31;50.93;;;21.80;;
31906;SDS011;18455;50.858;13.662;2023-02-13T19:08:32;47.30;;;19.53;;
31906;SDS011;18455;50.858;13.662;2023-02-13T19:13:34;46.73;;;20.90;;
31906;SDS011;18455;50.858;13.662;2023-02-13T19:18:36;43.37;;;19.17;;
31906;SDS011;18455;50.858;13.662;2023-02-13T19:23:38;52.57;;;22.10;;
31906;SDS011;18455;50.858;13.662;2023-02-13T19:28:38;50.10;;;20.73;;
31906;SDS011;18455;50.858;13.662;2023-02-13T19:33:39;45.67;;;19.43;;
31906;SDS011;18455;50.858;13.662;2023-02-13T19:38:40;56.87;;;20.43;;
31906;SDS011;18455;50.858;13.662;2023-02-13T19:43:42;49.63;;;18.23;;
31906;SDS011;18455;50.858;13.662;2023-02-13T19:48:50;50.20;;;19.70;;
31906;SDS011;18455;50.858;13.662;2023-02-13T19:53:54;58.67;;;20.03;;
31906;SDS011;18455;50.858;13.662;2023-02-13T19:59:02;53.27;;;18.00;;
31906;SDS011;18455;50.858;13.662;2023-02-13T20:04:02;48.13;;;19.13;;
31906;SDS011;18455;50.858;13.662;2023-02-13T20:09:04;47.70;;;18.37;;
31906;SDS011;18455;50.858;13.662;2023-02-13T20:14:10;59.60;;;24.97;;
31906;SDS011;18455;50.858;13.662;2023-02-13T20:19:13;46.73;;;18.73;;
31906;SDS011;18455;50.858;13.662;2023-02-13T20:24:14;53.73;;;18.30;;
31906;SDS011;18455;50.858;13.662;2023-02-13T20:29:14;51.97;;;18.97;;
31906;SDS011;18455;50.858;13.662;2023-02-13T20:34:14;51.83;;;18.43;;
31906;SDS011;18455;50.858;13.662;2023-02-13T20:39:15;50.73;;;18.63;;
31906;SDS011;18455;50.858;13.662;2023-02-13T20:44:16;60.53;;;21.60;;
31906;SDS011;18455;50.858;13.662;2023-02-13T20:49:19;54.10;;;19.83;;
31906;SDS011;18455;50.858;13.662;2023-02-13T20:54:21;77.23;;;27.37;;
31906;SDS011;18455;50.858;13.662;2023-02-13T20:59:21;53.97;;;20.47;;
31906;SDS011;18455;50.858;13.662;2023-02-13T21:04:21;60.33;;;20.10;;
31906;SDS011;18455;50.858;13.662;2023-02-13T21:09:22;57.87;;;20.27;;
31906;SDS011;18455;50.858;13.662;2023-02-13T21:14:22;45.03;;;17.70;;
31906;SDS011;18455;50.858;13.662;2023-02-13T21:19:23;51.63;;;19.80;;
31906;SDS011;18455;50.858;13.662;2023-02-13T21:24:23;44.10;;;18.17;;
31906;SDS011;18455;50.858;13.662;2023-02-13T21:29:24;60.57;;;19.93;;
31906;SDS011;18455;50.858;13.662;2023-02-13T21:34:24;73.40;;;22.87;;
31906;SDS011;18455;50.858;13.662;2023-02-13T21:39:24;77.13;;;24.23;;
31906;SDS011;18455;50.858;13.662;2023-02-13T21:44:25;59.03;;;21.43;;
31906;SDS011;18455;50.858;13.662;2023-02-13T21:49:25;54.77;;;19.17;;
31906;SDS011;18455;50.858;13.662;2023-02-13T21:54:25;65.63;;;20.03;;
31906;SDS011;18455;50.858;13.662;2023-02-13T21:59:26;62.63;;;22.07;;
31906;SDS011;18455;50.858;13.662;2023-02-13T22:04:26;63.60;;;20.43;;
31906;SDS011;18455;50.858;13.662;2023-02-13T22:09:27;62.97;;;20.93;;
31906;SDS011;18455;50.858;13.662;2023-02-13T22:14:27;57.70;;;20.80;;
31906;SDS011;18455;50.858;13.662;2023-02-13T22:19:27;50.33;;;19.60;;
31906;SDS011;18455;50.858;13.662;2023-02-13T22:24:28;64.80;;;20.23;;
31906;SDS011;18455;50.858;13.662;2023-02-13T22:29:28;55.57;;;19.80;;
31906;SDS011;18455;50.858;13.662;2023-02-13T22:34:28;56.03;;;19.57;;
31906;SDS011;18455;50.858;13.662;2023-02-13T22:39:29;50.77;;;19.97;;
31906;SDS011;18455;50.858;13.662;2023-02-13T22:44:29;57.37;;;20.47;;
31906;SDS011;18455;50.858;13.662;2023-02-13T22:49:30;58.50;;;20.50;;
31906;SDS011;18455;50.858;13.662;2023-02-13T22:54:30;57.03;;;20.00;;
31906;SDS011;18455;50.858;13.662;2023-02-13T22:59:30;63.30;;;21.57;;
31906;SDS011;18455;50.858;13.662;2023-02-13T23:04:35;50.20;;;19.97;;
31906;SDS011;18455;50.858;13.662;2023-02-13T23:09:35;56.07;;;20.47;;
31906;SDS011;18455;50.858;13.662;2023-02-13T23:14:35;46.43;;;19.20;;
31906;SDS011;18455;50.858;13.662;2023-02-13T23:19:36;59.13;;;20.97;;
31906;SDS011;18455;50.858;13.662;2023-02-13T23:24:36;54.60;;;19.73;;
31906;SDS011;18455;50.858;13.662;2023-02-13T23:29:37;61.67;;;20.47;;
31906;SDS011;18455;50.858;13.662;2023-02-13T23:34:37;60.87;;;21.03;;
31906;SDS011;18455;50.858;13.662;2023-02-13T23:39:37;67.83;;;22.37;;
31906;SDS011;18455;50.858;13.662;2023-02-13T23:44:38;66.23;;;23.00;;
31906;SDS011;18455;50.858;13.662;2023-02-13T23:49:38;70.13;;;22.47;;
31906;SDS011;18455;50.858;13.662;2023-02-13T23:54:38;61.10;;;21.63;;
31906;SDS011;18455;50.858;13.662;2023-02-13T23:59:39;86.40;;;23.07;;
